Time;durP1;ratioP1;P1;durP2;ratioP2;P2;SDS_P1;SDS_P2;PMS_P1;PMS_P2;Temp;Humidity;BMP_temperature;BMP_pressure;BME280_temperature;BME280_humidity;BME280_pressure;Samples;Min_cycle;Max_cycle;Signal;HPM_P1;HPM_P2
2021/12/19 00:00:04;;;;;;;1.25;0.60;;;20.30;60.90;;;;;;5047793;28;20052;-60
2021/12/19 00:02:44;;;;;;;2.85;0.73;;;20.30;60.90;;;;;;5032109;28;20041;-60
2021/12/19 00:10:26;;;;;;;1.70;0.80;;;20.20;60.80;;;;;;5031404;28;20045;-60
2021/12/19 00:12:52;;;;;;;1.75;0.63;;;20.20;60.90;;;;;;5032015;28;20312;-60
2021/12/19 00:15:18;;;;;;;1.98;0.70;;;20.20;60.80;;;;;;5030997;28;20034;-60
2021/12/19 00:17:43;;;;;;;1.52;0.50;;;20.20;60.80;;;;;;5030146;28;20100;-60
2021/12/19 00:20:09;;;;;;;1.63;0.77;;;20.20;60.80;;;;;;5032642;28;20088;-60
2021/12/19 00:22:34;;;;;;;2.47;0.70;;;20.20;60.70;;;;;;5031051;28;20516;-60
2021/12/19 00:25:00;;;;;;;1.45;0.70;;;20.20;60.70;;;;;;5031288;28;20038;-60
2021/12/19 00:27:26;;;;;;;1.25;0.50;;;20.20;60.70;;;;;;5032704;28;20049;-60
2021/12/19 00:29:51;;;;;;;2.05;0.70;;;20.20;60.70;;;;;;5031140;28;20402;-60
2021/12/19 00:32:17;;;;;;;1.88;0.70;;;20.20;60.70;;;;;;5032677;28;20042;-60
2021/12/19 00:34:42;;;;;;;2.03;0.85;;;20.20;60.60;;;;;;5032073;28;20137;-60
2021/12/19 00:37:08;;;;;;;1.75;0.50;;;20.10;60.60;;;;;;5031675;28;20048;-60
2021/12/19 00:39:33;;;;;;;1.10;0.60;;;20.10;60.60;;;;;;5032328;28;20560;-60
2021/12/19 00:41:59;;;;;;;1.25;0.50;;;20.10;60.60;;;;;;5031943;28;20046;-60
2021/12/19 00:44:25;;;;;;;1.67;0.60;;;20.10;60.50;;;;;;5031516;28;20076;-60
2021/12/19 00:46:53;;;;;;;2.10;0.70;;;20.10;60.60;;;;;;5047442;28;20049;-60
2021/12/19 00:49:20;;;;;;;1.08;0.60;;;20.10;60.50;;;;;;5032217;28;20167;-60
2021/12/19 00:51:45;;;;;;;1.15;0.50;;;20.10;60.50;;;;;;5031100;28;20065;-60
2021/12/19 00:54:11;;;;;;;1.40;0.60;;;20.10;60.50;;;;;;5032942;28;20486;-60
2021/12/19 00:56:38;;;;;;;1.88;0.50;;;20.10;60.50;;;;;;5035744;28;20119;-60
2021/12/19 00:59:04;;;;;;;1.25;0.73;;;20.10;60.40;;;;;;5034352;28;20062;-60
2021/12/19 01:01:29;;;;;;;1.45;0.57;;;20.00;60.40;;;;;;5034712;28;20038;-60
2021/12/19 01:03:55;;;;;;;2.22;0.60;;;20.00;60.70;;;;;;5035525;28;20049;-60
2021/12/19 01:06:20;;;;;;;1.95;0.68;;;20.10;60.40;;;;;;5034936;28;20049;-60
2021/12/19 01:08:47;;;;;;;1.08;0.57;;;20.00;60.40;;;;;;5035165;28;20057;-60
2021/12/19 01:11:12;;;;;;;4.22;0.50;;;20.00;60.30;;;;;;5035653;28;20080;-60
2021/12/19 01:13:38;;;;;;;1.77;0.50;;;20.00;60.30;;;;;;5034526;28;20127;-60
2021/12/19 01:16:03;;;;;;;3.08;0.80;;;20.00;60.30;;;;;;5035402;28;20168;-61
2021/12/19 01:18:29;;;;;;;1.23;0.63;;;20.00;60.40;;;;;;5035286;28;20054;-60
2021/12/19 01:20:54;;;;;;;1.52;0.60;;;20.00;60.40;;;;;;5034297;28;20095;-61
2021/12/19 01:23:21;;;;;;;2.50;0.60;;;20.00;60.30;;;;;;5035324;28;20049;-61
2021/12/19 01:25:48;;;;;;;1.35;0.43;;;20.00;60.30;;;;;;5034916;28;20045;-61
2021/12/19 01:28:13;;;;;;;1.30;0.60;;;19.90;60.20;;;;;;5034276;28;20447;-61
2021/12/19 01:30:39;;;;;;;1.80;0.70;;;19.90;60.20;;;;;;5035087;28;20055;-61
2021/12/19 01:33:04;;;;;;;1.33;0.50;;;19.90;60.20;;;;;;5034880;28;20042;-61
2021/12/19 01:35:30;;;;;;;2.00;0.60;;;20.00;60.30;;;;;;5034658;28;20041;-61
2021/12/19 01:37:55;;;;;;;2.15;0.60;;;19.90;60.20;;;;;;5034668;28;20056;-61
2021/12/19 01:40:21;;;;;;;1.13;0.52;;;19.90;60.20;;;;;;5034163;28;20033;-61
2021/12/19 01:42:48;;;;;;;2.40;0.52;;;19.90;60.90;;;;;;5034653;28;20557;-61
2021/12/19 01:45:25;;;;;;;1.60;0.55;;;19.90;60.20;;;;;;5033761;28;20053;-61
2021/12/19 01:47:50;;;;;;;1.13;0.70;;;19.90;60.20;;;;;;5033998;28;20064;-61
2021/12/19 01:50:16;;;;;;;2.28;0.50;;;19.90;60.20;;;;;;5034873;28;20493;-61
2021/12/19 01:52:42;;;;;;;1.90;0.70;;;19.90;60.30;;;;;;5034528;28;20512;-60
2021/12/19 01:55:08;;;;;;;1.70;0.57;;;19.90;60.20;;;;;;5034041;28;20049;-61
2021/12/19 01:57:34;;;;;;;2.25;0.73;;;19.90;60.20;;;;;;5034353;28;20057;-60
2021/12/19 02:00:00;;;;;;;0.85;0.60;;;19.80;60.20;;;;;;5034308;28;20567;-61
2021/12/19 02:02:25;;;;;;;1.35;0.50;;;19.90;60.20;;;;;;5033717;28;20085;-60
2021/12/19 02:04:52;;;;;;;1.85;0.60;;;19.80;60.10;;;;;;5034095;28;20389;-61
2021/12/19 02:07:18;;;;;;;1.00;0.43;;;19.80;60.10;;;;;;5033150;28;20401;-61
2021/12/19 02:09:44;;;;;;;2.22;0.60;;;19.80;60.00;;;;;;5033395;28;20037;-60
2021/12/19 02:12:10;;;;;;;1.80;0.60;;;19.80;60.00;;;;;;5034315;28;20046;-61
2021/12/19 02:14:35;;;;;;;1.95;0.70;;;19.80;60.60;;;;;;5034607;28;20047;-61
2021/12/19 02:17:01;;;;;;;2.83;0.60;;;19.80;60.00;;;;;;5033400;28;20053;-61
2021/12/19 02:19:29;;;;;;;1.88;0.60;;;19.80;60.00;;;;;;5048468;28;20045;-61
2021/12/19 02:21:55;;;;;;;;;;;19.80;60.00;;;;;;5032912;28;20516;-61
2021/12/19 02:24:20;;;;;;;2.63;0.80;;;19.70;59.90;;;;;;5033464;28;19999;-61
2021/12/19 02:26:47;;;;;;;1.35;0.70;;;19.70;60.00;;;;;;5033697;28;20053;-61
2021/12/19 02:29:12;;;;;;;1.73;0.68;;;19.70;60.00;;;;;;5033978;28;20481;-61
2021/12/19 02:31:38;;;;;;;1.40;0.60;;;19.70;60.00;;;;;;5033366;28;20045;-61
2021/12/19 02:34:14;;;;;;;2.08;0.60;;;19.80;60.00;;;;;;5048997;28;20061;-61
2021/12/19 02:39:37;;;;;;;2.38;0.73;;;19.70;59.90;;;;;;5033975;28;20050;-61
2021/12/19 02:50:01;;;;;;;1.52;0.50;;;19.80;59.90;;;;;;5033587;28;20078;-61
2021/12/19 02:52:27;;;;;;;1.90;0.55;;;19.80;59.90;;;;;;5032763;28;20049;-61
2021/12/19 02:54:52;;;;;;;1.83;0.60;;;19.80;59.80;;;;;;5033195;28;20065;-61
2021/12/19 02:57:18;;;;;;;1.55;0.60;;;19.80;59.80;;;;;;5032502;28;20057;-62
2021/12/19 02:59:43;;;;;;;2.22;0.68;;;19.80;59.80;;;;;;5047621;28;20099;-61
2021/12/19 03:02:09;;;;;;;1.42;0.50;;;19.80;59.80;;;;;;5032444;28;20050;-61
2021/12/19 03:04:35;;;;;;;1.40;0.50;;;19.80;59.70;;;;;;5032588;28;20049;-61
2021/12/19 03:07:01;;;;;;;1.80;0.60;;;19.80;59.70;;;;;;5032179;28;20524;-61
2021/12/19 03:20:17;;;;;;;1.70;0.50;;;19.90;59.70;;;;;;5032397;28;20053;-61
2021/12/19 03:22:42;;;;;;;0.75;0.45;;;19.90;59.60;;;;;;5032828;28;20124;-61
2021/12/19 03:25:09;;;;;;;1.35;0.60;;;19.90;59.60;;;;;;5033101;28;20195;-61
2021/12/19 03:27:34;;;;;;;1.20;0.40;;;19.90;59.60;;;;;;5031046;28;20041;-61
2021/12/19 03:30:00;;;;;;;1.70;0.40;;;19.90;59.60;;;;;;5032688;28;20068;-61
2021/12/19 03:32:26;;;;;;;1.40;0.40;;;19.90;59.50;;;;;;5031708;28;20052;-61
2021/12/19 03:34:52;;;;;;;1.98;0.50;;;19.90;59.40;;;;;;5047084;28;20041;-61
2021/12/19 03:37:17;;;;;;;1.58;0.60;;;20.00;59.50;;;;;;5048000;28;20098;-61
2021/12/19 03:42:27;;;;;;;0.60;0.30;;;20.00;59.40;;;;;;5032747;28;20092;-61
2021/12/19 03:44:53;;;;;;;1.15;0.40;;;20.00;59.40;;;;;;5047865;28;20077;-61
2021/12/19 03:47:18;;;;;;;3.38;0.60;;;20.00;59.40;;;;;;5032083;28;20041;-61
2021/12/19 03:49:44;;;;;;;2.35;0.40;;;20.00;59.40;;;;;;5032350;28;20045;-61
2021/12/19 03:52:09;;;;;;;1.48;0.45;;;20.00;59.40;;;;;;5030609;28;20053;-61
2021/12/19 03:54:35;;;;;;;1.23;0.30;;;20.00;59.40;;;;;;5030558;28;20044;-60
2021/12/19 03:57:00;;;;;;;2.15;0.50;;;20.10;59.40;;;;;;5032375;28;20053;-61
2021/12/19 03:59:27;;;;;;;0.90;0.40;;;20.00;59.40;;;;;;5031150;28;20394;-61
2021/12/19 04:01:53;;;;;;;2.08;0.43;;;20.10;59.40;;;;;;5031523;28;20085;-61
2021/12/19 04:04:19;;;;;;;0.60;0.30;;;20.10;59.40;;;;;;5031273;28;20413;-61
2021/12/19 04:06:45;;;;;;;0.73;0.30;;;20.10;59.40;;;;;;5032582;28;20129;-62
2021/12/19 04:09:10;;;;;;;0.80;0.30;;;20.10;59.40;;;;;;5032187;28;20120;-61
2021/12/19 04:11:36;;;;;;;0.60;0.30;;;20.00;59.30;;;;;;5032662;28;20465;-61
2021/12/19 04:14:01;;;;;;;1.40;0.32;;;20.10;59.30;;;;;;5032278;28;20042;-61
2021/12/19 04:16:27;;;;;;;0.70;0.30;;;20.10;59.40;;;;;;5031716;28;20049;-61
2021/12/19 04:18:52;;;;;;;0.95;0.30;;;20.10;59.30;;;;;;5032272;28;20073;-60
2021/12/19 04:21:18;;;;;;;1.05;0.30;;;20.10;59.30;;;;;;5046829;28;20053;-61
2021/12/19 04:23:43;;;;;;;0.90;0.32;;;20.10;59.30;;;;;;5031473;28;20081;-61
2021/12/19 04:26:09;;;;;;;0.55;0.20;;;20.20;59.30;;;;;;5031338;28;20050;-61
2021/12/19 04:28:34;;;;;;;0.80;0.30;;;20.20;59.30;;;;;;5032298;28;20050;-61
2021/12/19 04:31:01;;;;;;;0.50;0.20;;;20.20;59.30;;;;;;5050152;28;20072;-61
2021/12/19 04:33:28;;;;;;;0.93;0.28;;;20.20;59.30;;;;;;5036009;28;20512;-61
2021/12/19 04:36:00;;;;;;;0.97;0.40;;;20.20;59.40;;;;;;5036132;28;20050;-61
2021/12/19 04:41:49;;;;;;;0.98;0.28;;;20.20;59.40;;;;;;5035919;28;20474;-61
2021/12/19 04:59:54;;;;;;;0.63;0.22;;;20.20;59.30;;;;;;5035529;28;20053;-60
2021/12/19 05:05:31;;;;;;;0.60;0.30;;;20.20;59.20;;;;;;5033898;28;20053;-60
2021/12/19 05:16:10;;;;;;;0.80;0.20;;;20.20;59.20;;;;;;5035832;28;20481;-59
2021/12/19 05:18:38;;;;;;;0.63;0.20;;;20.20;59.20;;;;;;5029996;28;20058;-60
2021/12/19 05:21:14;;;;;;;1.23;0.30;;;20.20;59.20;;;;;;5015299;28;20107;-60
2021/12/19 05:24:04;;;;;;;1.00;0.20;;;20.30;59.20;;;;;;5014327;28;20104;-60
2021/12/19 05:26:25;;;;;;;0.68;0.30;;;20.20;59.10;;;;;;5014524;28;20045;-60
2021/12/19 05:28:52;;;;;;;0.22;0.20;;;20.30;59.20;;;;;;5015400;28;20468;-60
2021/12/19 05:31:21;;;;;;;0.75;0.15;;;20.30;59.20;;;;;;5015383;28;20038;-60
2021/12/19 05:33:47;;;;;;;0.45;0.20;;;20.30;59.20;;;;;;5013370;28;20069;-60
2021/12/19 05:46:58;;;;;;;0.35;0.10;;;20.30;59.10;;;;;;5014127;28;20413;-60
2021/12/19 05:49:23;;;;;;;1.20;0.20;;;20.30;59.10;;;;;;5015185;28;20188;-59
2021/12/19 05:51:49;;;;;;;0.80;0.20;;;20.30;59.10;;;;;;5013592;28;20537;-60
2021/12/19 05:54:14;;;;;;;1.17;0.20;;;20.30;59.10;;;;;;5014444;28;20042;-60
2021/12/19 05:56:40;;;;;;;0.50;0.20;;;20.40;59.10;;;;;;5031647;28;20417;-60
2021/12/19 05:59:06;;;;;;;0.20;0.20;;;20.30;59.10;;;;;;5034312;28;20057;-60
2021/12/19 06:01:32;;;;;;;0.68;0.30;;;20.30;59.10;;;;;;5033739;28;20076;-60
2021/12/19 06:03:58;;;;;;;0.40;0.20;;;20.30;59.10;;;;;;5034345;28;20147;-60
2021/12/19 06:06:26;;;;;;;0.30;0.10;;;20.30;59.70;;;;;;5034540;28;20073;-60
2021/12/19 06:08:52;;;;;;;0.43;0.20;;;20.30;59.10;;;;;;5033600;28;20096;-60
2021/12/19 06:11:17;;;;;;;0.10;0.10;;;20.30;59.10;;;;;;5033108;28;20512;-60
2021/12/19 06:13:43;;;;;;;0.40;0.10;;;20.30;59.00;;;;;;5033157;28;20048;-61
2021/12/19 06:16:09;;;;;;;0.20;0.10;;;20.30;59.00;;;;;;5033560;28;20051;-60
2021/12/19 06:18:35;;;;;;;0.20;0.20;;;20.30;58.90;;;;;;5034559;28;20040;-60
2021/12/19 06:21:00;;;;;;;0.68;0.20;;;20.30;58.90;;;;;;5033861;28;20594;-60
2021/12/19 06:23:26;;;;;;;0.30;0.17;;;20.40;59.10;;;;;;5033628;28;20041;-60
2021/12/19 06:25:53;;;;;;;0.25;0.15;;;20.30;58.90;;;;;;5033735;28;20030;-60
2021/12/19 06:28:19;;;;;;;0.73;0.25;;;20.30;58.90;;;;;;5034100;28;20128;-60
2021/12/19 06:30:44;;;;;;;0.77;0.57;;;20.40;59.00;;;;;;5032860;28;20217;-60
2021/12/19 06:33:10;;;;;;;1.23;0.20;;;20.40;59.00;;;;;;5032785;28;20053;-60
2021/12/19 06:35:35;;;;;;;0.38;0.20;;;20.40;59.00;;;;;;5032080;28;20092;-60
2021/12/19 06:38:01;;;;;;;0.38;0.20;;;20.40;59.00;;;;;;5049163;28;20570;-60
2021/12/19 06:40:27;;;;;;;0.52;0.20;;;20.40;59.00;;;;;;5033758;28;20055;-60
2021/12/19 06:42:52;;;;;;;0.73;0.20;;;20.40;58.90;;;;;;5032889;28;20128;-60
2021/12/19 06:45:18;;;;;;;0.65;0.20;;;20.40;58.90;;;;;;5026118;28;20042;-60
2021/12/19 06:47:44;;;;;;;0.45;0.20;;;20.40;58.90;;;;;;5013892;28;20053;-60
2021/12/19 06:50:12;;;;;;;1.10;0.20;;;20.40;59.60;;;;;;5013046;28;20132;-60
2021/12/19 06:52:37;;;;;;;0.40;0.10;;;20.40;58.90;;;;;;5013109;28;20477;-60
2021/12/19 06:55:03;;;;;;;0.77;0.20;;;20.40;58.90;;;;;;5012183;28;20501;-60
2021/12/19 06:57:29;;;;;;;0.32;0.10;;;20.40;58.80;;;;;;5011779;28;20046;-60
2021/12/19 06:59:54;;;;;;;0.75;0.15;;;20.40;58.90;;;;;;5013516;28;20493;-60
2021/12/19 07:02:20;;;;;;;0.88;0.30;;;20.40;58.90;;;;;;5013813;28;20046;-60
2021/12/19 07:04:45;;;;;;;0.60;0.30;;;20.40;58.80;;;;;;5012909;28;20100;-60
2021/12/19 07:07:11;;;;;;;0.30;0.20;;;20.50;58.90;;;;;;5012480;28;20040;-60
2021/12/19 07:09:38;;;;;;;0.70;0.20;;;20.50;58.90;;;;;;5012590;28;20100;-60
2021/12/19 07:12:04;;;;;;;0.63;0.20;;;20.50;58.90;;;;;;5023303;28;20524;-60
2021/12/19 07:14:30;;;;;;;0.45;0.20;;;20.50;58.90;;;;;;5033378;28;20064;-60
2021/12/19 07:16:55;;;;;;;0.52;0.22;;;20.50;58.90;;;;;;5032939;28;20485;-60
2021/12/19 07:19:21;;;;;;;0.55;0.20;;;20.50;58.90;;;;;;5032457;28;20474;-60
2021/12/19 07:21:46;;;;;;;1.17;0.25;;;20.50;58.80;;;;;;5031418;28;20529;-60
2021/12/19 07:24:12;;;;;;;0.40;0.20;;;20.50;58.90;;;;;;5032093;28;20048;-61
2021/12/19 07:26:37;;;;;;;0.90;0.22;;;20.50;58.90;;;;;;5032144;28;20057;-61
2021/12/19 07:29:03;;;;;;;1.08;0.28;;;20.50;58.90;;;;;;5032754;28;20038;-61
2021/12/19 07:31:30;;;;;;;0.57;0.20;;;20.50;58.80;;;;;;5031996;28;20060;-61
2021/12/19 07:33:57;;;;;;;1.75;0.30;;;20.50;58.90;;;;;;5030860;28;20060;-61
2021/12/19 07:36:25;;;;;;;2.15;0.40;;;20.50;58.90;;;;;;5032985;28;20042;-61
2021/12/19 07:38:58;;;;;;;0.28;0.20;;;20.50;58.80;;;;;;5032192;28;20045;-61
2021/12/19 07:41:23;;;;;;;0.73;0.20;;;20.60;58.90;;;;;;5032873;28;20072;-62
2021/12/19 07:43:49;;;;;;;1.25;0.20;;;20.50;58.90;;;;;;5032146;28;20049;-61
2021/12/19 07:46:14;;;;;;;1.20;0.30;;;20.60;58.90;;;;;;5031962;28;20132;-61
2021/12/19 07:48:40;;;;;;;2.38;0.40;;;20.60;58.80;;;;;;5031517;28;20045;-62
2021/12/19 07:51:05;;;;;;;2.72;0.40;;;20.60;58.70;;;;;;5031736;28;20045;-62
2021/12/19 07:53:31;;;;;;;1.60;0.30;;;20.60;58.60;;;;;;5032097;28;20487;-61
2021/12/19 07:55:56;;;;;;;2.85;0.28;;;20.60;58.70;;;;;;5032579;28;20053;-61
2021/12/19 07:58:22;;;;;;;1.88;0.40;;;20.60;58.70;;;;;;5032519;28;20114;-61
2021/12/19 08:00:47;;;;;;;0.98;0.40;;;20.60;58.70;;;;;;5031382;28;20064;-62
2021/12/19 08:03:13;;;;;;;1.63;0.40;;;20.60;58.80;;;;;;5033204;28;20144;-61
2021/12/19 08:05:39;;;;;;;1.85;0.35;;;20.60;58.80;;;;;;5039295;28;20045;-61
2021/12/19 08:08:05;;;;;;;1.27;0.40;;;20.60;58.90;;;;;;5036723;28;20417;-62
2021/12/19 08:12:57;;;;;;;1.48;0.47;;;20.70;59.00;;;;;;5038864;28;20046;-61
2021/12/19 08:15:22;;;;;;;2.90;0.50;;;20.70;59.00;;;;;;5038515;28;20130;-62
2021/12/19 08:17:47;;;;;;;2.45;0.50;;;20.70;59.10;;;;;;5038703;28;20080;-61
2021/12/19 08:20:15;;;;;;;1.95;0.40;;;20.70;59.20;;;;;;5037474;28;20067;-61
2021/12/19 08:22:41;;;;;;;3.22;0.57;;;20.70;59.20;;;;;;5037199;28;20049;-61
2021/12/19 08:25:07;;;;;;;8.38;0.80;;;20.70;59.20;;;;;;5038627;28;20041;-62
2021/12/19 08:27:37;;;;;;;3.95;0.40;;;20.70;59.40;;;;;;5037674;28;20484;-60
2021/12/19 08:30:04;;;;;;;3.80;0.77;;;20.70;59.50;;;;;;5035999;28;20045;-60
2021/12/19 08:32:29;;;;;;;3.17;0.60;;;20.70;59.50;;;;;;5039020;28;20069;-61
2021/12/19 08:34:55;;;;;;;2.30;0.60;;;20.70;59.60;;;;;;5038514;28;20080;-61
2021/12/19 08:37:20;;;;;;;2.85;0.50;;;20.80;59.70;;;;;;5037953;28;20122;-61
2021/12/19 08:39:46;;;;;;;3.33;0.57;;;20.80;59.70;;;;;;5038448;28;20041;-59
2021/12/19 08:42:11;;;;;;;3.58;0.60;;;20.80;59.70;;;;;;5036874;28;20463;-59
2021/12/19 08:44:37;;;;;;;2.35;0.60;;;20.80;59.80;;;;;;5038835;28;20049;-60
2021/12/19 08:47:03;;;;;;;3.92;0.70;;;20.80;59.80;;;;;;5038573;28;20041;-59
2021/12/19 08:49:29;;;;;;;3.88;0.60;;;20.80;59.90;;;;;;5034695;28;20048;-61
2021/12/19 08:51:54;;;;;;;3.00;0.77;;;20.80;59.80;;;;;;5036962;28;20051;-61
2021/12/19 08:54:21;;;;;;;2.95;0.50;;;20.90;59.90;;;;;;5038185;28;20133;-60
2021/12/19 08:56:46;;;;;;;2.67;0.60;;;20.90;60.00;;;;;;5037697;28;20048;-58
2021/12/19 08:59:12;;;;;;;3.38;0.68;;;20.90;59.90;;;;;;5037093;28;20053;-60
2021/12/19 09:01:38;;;;;;;3.25;0.63;;;20.90;59.80;;;;;;5038367;28;20049;-61
2021/12/19 09:04:04;;;;;;;3.83;0.65;;;20.90;59.70;;;;;;5037311;28;20119;-61
2021/12/19 09:06:29;;;;;;;2.17;0.80;;;20.90;59.90;;;;;;5038663;28;20477;-61
2021/12/19 09:08:55;;;;;;;4.97;0.80;;;20.90;59.90;;;;;;5036913;28;20481;-61
2021/12/19 09:11:20;;;;;;;1.58;0.65;;;20.90;60.00;;;;;;5036572;28;20041;-60
2021/12/19 09:13:46;;;;;;;2.55;0.60;;;20.90;60.00;;;;;;5038252;28;20493;-61
2021/12/19 09:16:11;;;;;;;3.17;0.50;;;20.90;60.00;;;;;;5033874;28;20374;-61
2021/12/19 09:18:37;;;;;;;2.35;0.52;;;21.00;60.10;;;;;;5034752;28;20093;-61
2021/12/19 09:21:02;;;;;;;4.45;0.70;;;21.00;60.10;;;;;;5034745;28;20041;-61
2021/12/19 09:23:29;;;;;;;2.83;0.77;;;21.00;60.10;;;;;;5035627;28;20049;-61
2021/12/19 09:25:54;;;;;;;1.60;0.57;;;21.00;60.10;;;;;;5032953;28;20048;-61
2021/12/19 09:28:20;;;;;;;2.67;0.70;;;21.00;60.10;;;;;;5035300;28;20397;-61
2021/12/19 09:30:46;;;;;;;3.45;0.98;;;21.00;60.10;;;;;;5035166;28;20386;-61
2021/12/19 09:33:11;;;;;;;2.85;0.60;;;21.00;60.10;;;;;;5034562;28;20065;-61
2021/12/19 09:35:37;;;;;;;2.80;0.60;;;21.00;60.20;;;;;;5033761;28;20139;-60
2021/12/19 09:38:03;;;;;;;5.13;0.85;;;21.00;60.20;;;;;;5033462;28;20057;-61
2021/12/19 09:40:37;;;;;;;5.03;0.80;;;21.10;60.20;;;;;;5034289;28;20503;-61
2021/12/19 09:43:31;;;;;;;3.28;0.95;;;21.10;60.20;;;;;;5033352;28;20072;-61
2021/12/19 09:45:58;;;;;;;2.80;0.70;;;21.10;60.30;;;;;;5033590;28;20049;-61
2021/12/19 09:48:23;;;;;;;4.30;0.90;;;21.10;60.20;;;;;;5033528;28;20515;-61
2021/12/19 09:50:49;;;;;;;3.67;0.85;;;21.10;60.20;;;;;;5034695;28;20497;-60
2021/12/19 09:53:15;;;;;;;3.17;0.70;;;21.10;60.20;;;;;;5034124;28;20128;-61
2021/12/19 09:55:40;;;;;;;1.75;0.60;;;21.10;60.20;;;;;;5034802;28;20049;-61
2021/12/19 09:58:06;;;;;;;3.28;0.70;;;21.10;60.20;;;;;;5034545;28;20057;-61
2021/12/19 10:00:31;;;;;;;2.67;0.73;;;21.20;60.30;;;;;;5034031;28;20053;-61
2021/12/19 10:02:57;;;;;;;4.13;0.55;;;21.20;60.30;;;;;;5034452;28;20068;-62
2021/12/19 10:05:24;;;;;;;3.35;0.70;;;21.20;60.40;;;;;;5034610;28;20119;-61
2021/12/19 10:07:54;;;;;;;2.35;0.63;;;21.20;60.30;;;;;;5033553;28;20576;-62
2021/12/19 10:10:27;;;;;;;1.88;0.60;;;21.20;60.40;;;;;;5033286;28;20053;-62
2021/12/19 10:12:57;;;;;;;2.50;0.68;;;21.20;60.40;;;;;;5033922;28;20068;-62
2021/12/19 10:15:34;;;;;;;1.65;0.50;;;21.20;60.40;;;;;;5032248;28;20048;-61
2021/12/19 10:18:02;;;;;;;1.75;0.55;;;21.20;60.40;;;;;;5032840;28;20041;-61
2021/12/19 10:20:27;;;;;;;3.15;0.77;;;21.20;60.30;;;;;;5032664;28;20053;-61
2021/12/19 10:22:53;;;;;;;1.55;0.60;;;21.20;60.20;;;;;;5015064;28;20060;-61
2021/12/19 10:25:30;;;;;;;2.65;0.95;;;21.20;60.10;;;;;;5034107;28;20413;-61
2021/12/19 10:28:03;;;;;;;1.83;0.65;;;21.20;60.10;;;;;;5032186;28;20053;-61
2021/12/19 10:30:31;;;;;;;1.80;0.60;;;21.20;60.10;;;;;;5033041;28;20059;-61
2021/12/19 10:32:56;;;;;;;11.18;0.90;;;21.20;60.10;;;;;;5033908;28;20056;-61
2021/12/19 10:35:31;;;;;;;9.25;1.02;;;21.20;60.00;;;;;;5032233;28;20046;-61
2021/12/19 10:37:57;;;;;;;5.32;0.88;;;21.20;60.00;;;;;;5033376;28;20041;-61
2021/12/19 10:40:23;;;;;;;20.02;1.50;;;21.20;60.00;;;;;;5032215;28;20038;-62
2021/12/19 10:42:55;;;;;;;11.75;1.10;;;21.20;60.10;;;;;;5032816;28;20045;-62
2021/12/19 10:45:30;;;;;;;8.85;1.35;;;21.20;60.10;;;;;;5033379;28;20041;-61
2021/12/19 10:48:20;;;;;;;10.55;0.90;;;21.20;60.10;;;;;;5029137;28;20045;-62
2021/12/19 10:51:04;;;;;;;5.25;1.10;;;21.20;60.20;;;;;;5031380;28;20132;-64
2021/12/19 10:53:31;;;;;;;6.68;1.17;;;21.20;60.20;;;;;;5032591;28;20562;-61
2021/12/19 10:55:57;;;;;;;8.48;0.85;;;21.20;60.30;;;;;;5030956;28;20084;-62
2021/12/19 10:58:25;;;;;;;7.50;0.80;;;21.20;60.40;;;;;;5031992;28;20081;-61
2021/12/19 11:01:09;;;;;;;4.87;0.90;;;21.20;60.50;;;;;;5030835;28;20451;-62
2021/12/19 11:03:40;;;;;;;7.70;0.98;;;21.20;60.50;;;;;;5030618;28;20327;-62
2021/12/19 11:06:25;;;;;;;6.38;0.95;;;21.20;61.20;;;;;;5029543;28;20053;-61
2021/12/19 11:08:52;;;;;;;9.82;1.00;;;21.20;60.60;;;;;;5031350;28;20037;-62
2021/12/19 11:11:32;;;;;;;4.32;0.80;;;21.30;60.60;;;;;;5031930;28;20133;-62
2021/12/19 11:13:58;;;;;;;8.15;1.30;;;21.30;60.70;;;;;;5029836;28;20144;-62
2021/12/19 11:16:24;;;;;;;8.48;0.90;;;21.30;60.70;;;;;;5031949;28;20045;-61
2021/12/19 11:18:50;;;;;;;7.25;0.93;;;21.30;60.70;;;;;;5031131;28;20055;-62
2021/12/19 11:21:17;;;;;;;7.35;1.65;;;21.30;60.70;;;;;;5036350;28;20121;-62
2021/12/19 11:23:43;;;;;;;8.57;1.35;;;21.30;60.70;;;;;;5032492;28;20045;-62
2021/12/19 11:26:08;;;;;;;5.32;0.70;;;21.30;60.70;;;;;;5031145;28;20048;-63
2021/12/19 11:28:34;;;;;;;7.07;1.00;;;21.30;60.70;;;;;;5030946;28;20041;-62
2021/12/19 11:30:59;;;;;;;7.88;1.10;;;21.30;60.60;;;;;;5020544;28;20419;-63
2021/12/19 11:33:53;;;;;;;5.35;0.70;;;21.30;60.50;;;;;;5030879;28;20088;-62
2021/12/19 11:36:18;;;;;;;3.58;0.80;;;21.30;60.60;;;;;;5030129;28;20037;-63
2021/12/19 11:38:44;;;;;;;3.95;0.60;;;21.30;60.50;;;;;;5001970;28;20067;-63
2021/12/19 11:41:10;;;;;;;7.00;0.80;;;21.30;60.60;;;;;;5014714;28;20064;-61
2021/12/19 11:43:37;;;;;;;5.72;0.85;;;21.30;60.50;;;;;;5032623;28;20037;-62
2021/12/19 11:46:10;;;;;;;3.45;0.73;;;21.30;60.60;;;;;;5029989;28;20042;-61
2021/12/19 11:48:35;;;;;;;5.72;0.90;;;21.30;60.60;;;;;;5032715;28;20041;-61
2021/12/19 11:51:03;;;;;;;10.05;1.13;;;21.30;60.60;;;;;;5030536;28;20095;-61
2021/12/19 11:53:30;;;;;;;3.67;0.90;;;21.30;60.50;;;;;;5031416;28;20060;-61
2021/12/19 11:56:09;;;;;;;7.25;0.90;;;21.30;60.50;;;;;;5030754;28;20346;-61
2021/12/19 11:58:49;;;;;;;3.85;1.00;;;21.30;60.40;;;;;;5037629;28;20115;-61
2021/12/19 12:01:29;;;;;;;3.50;0.70;;;21.30;60.40;;;;;;5026974;28;20076;-60
2021/12/19 12:04:13;;;;;;;4.63;0.82;;;21.40;60.50;;;;;;5029832;28;20037;-61
2021/12/19 12:06:43;;;;;;;5.00;0.68;;;21.30;60.40;;;;;;5027316;28;20053;-61
2021/12/19 12:09:24;;;;;;;5.20;0.63;;;21.30;60.40;;;;;;5011513;28;20124;-61
2021/12/19 12:12:08;;;;;;;2.40;0.60;;;21.30;60.20;;;;;;5012212;28;20049;-61
2021/12/19 12:14:37;;;;;;;3.88;0.85;;;21.30;60.20;;;;;;5012180;28;20057;-61
2021/12/19 12:17:11;;;;;;;4.57;0.80;;;21.30;60.10;;;;;;5012376;28;20119;-61
2021/12/19 12:19:51;;;;;;;3.13;0.70;;;21.30;60.10;;;;;;5012871;28;20049;-61
2021/12/19 12:22:34;;;;;;;4.78;0.60;;;21.30;60.10;;;;;;5010550;28;20073;-61
2021/12/19 12:25:09;;;;;;;3.95;0.75;;;21.30;60.00;;;;;;5012392;28;20045;-61
2021/12/19 12:27:36;;;;;;;4.18;0.75;;;21.30;60.00;;;;;;5010878;28;20352;-61
2021/12/19 12:30:03;;;;;;;6.50;1.08;;;21.30;60.00;;;;;;5012162;28;20046;-62
2021/12/19 12:32:29;;;;;;;3.35;0.82;;;21.30;59.80;;;;;;5012653;28;20481;-62
2021/12/19 12:34:55;;;;;;;3.50;0.73;;;21.30;59.90;;;;;;5011694;28;20052;-61
2021/12/19 12:37:20;;;;;;;4.63;0.73;;;21.30;60.50;;;;;;5011404;28;20056;-61
2021/12/19 12:39:46;;;;;;;7.18;0.90;;;21.30;59.90;;;;;;5011347;28;20046;-61
2021/12/19 12:42:11;;;;;;;4.93;0.90;;;21.20;59.90;;;;;;5011625;28;20068;-61
2021/12/19 12:44:37;;;;;;;7.05;0.80;;;21.20;60.00;;;;;;5020609;28;20065;-61
2021/12/19 12:47:05;;;;;;;3.38;0.80;;;21.20;60.00;;;;;;5031990;28;20079;-61
2021/12/19 12:49:34;;;;;;;3.88;0.80;;;21.20;60.00;;;;;;5031553;28;20115;-61
2021/12/19 12:52:05;;;;;;;5.43;0.82;;;21.30;60.00;;;;;;5035008;28;20049;-61
2021/12/19 12:54:37;;;;;;;6.25;1.23;;;21.30;60.20;;;;;;5035649;28;20045;-61
2021/12/19 12:57:10;;;;;;;4.35;0.82;;;21.20;60.10;;;;;;5034914;28;20057;-61
2021/12/19 12:59:39;;;;;;;6.65;0.90;;;21.30;60.80;;;;;;5035469;28;20049;-61
2021/12/19 13:02:13;;;;;;;4.45;0.70;;;21.30;60.20;;;;;;5035511;28;20080;-60
2021/12/19 13:04:43;;;;;;;4.00;0.90;;;21.30;60.30;;;;;;5035169;28;20060;-61
2021/12/19 13:07:10;;;;;;;4.65;0.93;;;21.30;60.30;;;;;;5035509;28;20045;-61
2021/12/19 13:09:51;;;;;;;4.72;0.93;;;21.30;61.00;;;;;;5034984;28;20038;-61
2021/12/19 13:12:25;;;;;;;4.57;0.77;;;21.30;60.40;;;;;;5034950;28;20033;-61
2021/12/19 13:14:52;;;;;;;3.95;1.30;;;21.30;60.40;;;;;;5034618;28;20431;-61
2021/12/19 13:17:18;;;;;;;6.60;1.05;;;21.30;60.50;;;;;;5034453;28;20037;-61
2021/12/19 13:19:48;;;;;;;5.47;0.82;;;21.30;60.50;;;;;;5034925;28;20080;-61
2021/12/19 13:22:33;;;;;;;7.30;1.02;;;21.30;60.50;;;;;;5034730;28;20038;-61
2021/12/19 13:25:09;;;;;;;6.90;0.90;;;21.30;60.50;;;;;;5031246;28;20049;-61
2021/12/19 13:27:36;;;;;;;5.22;1.25;;;21.30;60.60;;;;;;5030812;28;20120;-61
2021/12/19 13:30:19;;;;;;;6.03;0.98;;;21.30;60.60;;;;;;5034983;28;20041;-61
2021/12/19 13:33:10;;;;;;;4.40;0.90;;;21.30;60.60;;;;;;5033018;28;20038;-62
2021/12/19 13:35:43;;;;;;;4.97;1.33;;;21.30;60.60;;;;;;5035110;28;20573;-61
2021/12/19 13:38:10;;;;;;;7.45;1.67;;;21.30;60.60;;;;;;5034461;28;20052;-61
2021/12/19 13:40:43;;;;;;;3.83;0.80;;;21.30;60.60;;;;;;5034898;28;20041;-61
2021/12/19 13:43:14;;;;;;;3.95;0.80;;;21.30;60.60;;;;;;5034289;28;20046;-60
2021/12/19 13:45:41;;;;;;;5.35;1.05;;;21.30;60.60;;;;;;5032495;28;20050;-60
2021/12/19 13:48:35;;;;;;;3.88;1.15;;;21.30;60.50;;;;;;5034431;28;20049;-61
2021/12/19 13:51:07;;;;;;;4.97;0.90;;;21.30;60.40;;;;;;5014628;28;20077;-61
2021/12/19 13:53:34;;;;;;;4.40;0.88;;;21.30;60.60;;;;;;5029708;28;20048;-61
2021/12/19 13:56:06;;;;;;;6.15;1.00;;;21.30;60.60;;;;;;5029863;28;20130;-61
2021/12/19 13:58:40;;;;;;;10.02;1.20;;;21.30;61.20;;;;;;5029684;28;20050;-61
2021/12/19 14:01:18;;;;;;;3.90;0.80;;;21.30;60.60;;;;;;5034062;28;20045;-62
2021/12/19 14:03:50;;;;;;;5.10;0.93;;;21.20;60.50;;;;;;5034316;28;20060;-61